createdAt,value
2023-11-03T00:01:16.529Z,2.50
2023-11-03T00:03:43.452Z,2.40
2023-11-03T00:06:10.329Z,2.70
2023-11-03T00:08:37.077Z,2.80
2023-11-03T00:11:04.533Z,3.10
2023-11-03T00:13:32.201Z,3.60
2023-11-03T00:15:58.982Z,3.20
2023-11-03T00:18:25.822Z,3.10
2023-11-03T00:20:52.546Z,2.90
2023-11-03T00:23:19.293Z,2.90
2023-11-03T00:25:46.037Z,3.10
2023-11-03T00:28:12.792Z,3.30
2023-11-03T00:30:39.568Z,2.70
2023-11-03T00:33:06.829Z,3.20
2023-11-03T00:35:35.139Z,3.60
2023-11-03T00:38:01.952Z,3.30
2023-11-03T00:40:29.113Z,3.50
2023-11-03T00:42:56.116Z,2.90
2023-11-03T00:45:22.914Z,2.80
2023-11-03T00:47:50.038Z,2.80
2023-11-03T00:50:17.028Z,2.70
2023-11-03T00:52:43.880Z,3.00
2023-11-03T00:55:10.671Z,2.80
2023-11-03T00:57:37.460Z,2.80
2023-11-03T01:00:05.061Z,2.70
2023-11-03T01:02:31.829Z,2.50
2023-11-03T01:04:58.635Z,2.60
2023-11-03T01:07:25.511Z,2.60
2023-11-03T01:09:52.248Z,2.80
2023-11-03T01:12:19.191Z,2.80
2023-11-03T01:14:45.960Z,3.00
2023-11-03T01:17:13.144Z,2.50
2023-11-03T01:19:39.831Z,2.40
2023-11-03T01:22:06.726Z,3.10
2023-11-03T01:24:33.552Z,2.70
2023-11-03T01:27:00.236Z,2.80
2023-11-03T01:29:26.966Z,2.60
2023-11-03T01:31:53.702Z,2.80
2023-11-03T01:34:20.451Z,3.40
2023-11-03T01:36:47.211Z,3.20
2023-11-03T01:39:14.349Z,3.30
2023-11-03T01:41:40.999Z,3.30
2023-11-03T01:44:09.408Z,2.90
2023-11-03T01:46:40.608Z,2.70
2023-11-03T01:49:09.056Z,2.60
2023-11-03T01:51:36.765Z,2.70
2023-11-03T01:54:05.327Z,2.90
2023-11-03T01:56:33.895Z,3.20
2023-11-03T01:59:06.111Z,3.00
2023-11-03T02:01:33.625Z,3.10
2023-11-03T02:04:00.569Z,2.80
2023-11-03T02:06:27.640Z,2.70
2023-11-03T02:08:55.065Z,2.90
2023-11-03T02:11:29.431Z,2.90
2023-11-03T02:13:57.215Z,2.50
2023-11-03T02:16:24.831Z,2.40
2023-11-03T02:18:51.781Z,2.70
2023-11-03T02:21:19.003Z,3.00
2023-11-03T02:23:45.771Z,4.20
2023-11-03T02:26:12.402Z,2.70
2023-11-03T02:28:39.360Z,2.70
2023-11-03T02:31:06.272Z,2.50
2023-11-03T02:33:33.054Z,2.80
2023-11-03T02:35:59.896Z,3.00
2023-11-03T02:38:26.659Z,2.40
2023-11-03T02:40:53.394Z,2.40
2023-11-03T02:43:20.176Z,2.40
2023-11-03T02:45:46.914Z,2.40
2023-11-03T02:48:13.661Z,2.10
2023-11-03T02:50:40.612Z,2.00
2023-11-03T02:53:07.340Z,2.50
2023-11-03T02:55:34.099Z,2.10
2023-11-03T02:58:00.864Z,2.40
2023-11-03T03:00:27.716Z,3.50
2023-11-03T03:02:54.873Z,3.60
2023-11-03T03:05:21.684Z,3.40
2023-11-03T03:07:48.493Z,2.90
2023-11-03T03:10:15.708Z,2.80
2023-11-03T03:12:42.685Z,2.40
2023-11-03T03:15:10.880Z,2.40
2023-11-03T03:17:37.533Z,2.90
2023-11-03T03:20:04.944Z,2.70
2023-11-03T03:22:31.576Z,2.90
2023-11-03T03:24:58.378Z,2.90
2023-11-03T03:27:25.221Z,2.80
2023-11-03T03:29:52.250Z,3.00
2023-11-03T03:32:19.141Z,4.90
2023-11-03T03:34:46.049Z,5.50
2023-11-03T03:37:12.763Z,6.40
2023-11-03T03:39:39.778Z,5.20
2023-11-03T03:42:07.380Z,4.10
2023-11-03T03:44:34.449Z,3.00
2023-11-03T03:47:01.303Z,2.40
2023-11-03T03:49:28.040Z,3.40
2023-11-03T03:51:54.801Z,7.80
2023-11-03T03:54:21.534Z,7.00
2023-11-03T03:56:48.384Z,7.80
2023-11-03T03:59:15.434Z,8.40
2023-11-03T04:01:45.554Z,10.10
2023-11-03T04:04:12.353Z,10.30
2023-11-03T04:06:39.291Z,8.50
2023-11-03T04:09:06.643Z,9.50
2023-11-03T04:11:33.584Z,11.70
2023-11-03T04:14:00.416Z,8.60
2023-11-03T04:16:37.403Z,7.90
2023-11-03T04:19:05.064Z,3.10
2023-11-03T04:21:31.990Z,2.80
2023-11-03T04:23:58.772Z,2.30
2023-11-03T04:26:26.235Z,2.30
2023-11-03T04:28:53.712Z,2.20
2023-11-03T04:31:20.632Z,3.30
2023-11-03T04:33:47.880Z,4.40
2023-11-03T04:36:14.762Z,2.70
2023-11-03T04:38:41.922Z,2.80
2023-11-03T04:41:08.674Z,2.40
2023-11-03T04:43:35.324Z,2.10
2023-11-03T04:46:02.515Z,2.70
2023-11-03T04:48:29.237Z,2.30
2023-11-03T04:50:55.979Z,2.00
2023-11-03T04:53:22.727Z,2.10
2023-11-03T04:55:49.462Z,2.20
2023-11-03T04:58:17.485Z,3.10
2023-11-03T05:00:44.626Z,2.10
2023-11-03T05:03:11.550Z,3.10
2023-11-03T05:05:38.859Z,2.10
2023-11-03T05:08:05.858Z,3.30
2023-11-03T05:10:32.603Z,4.10
2023-11-03T05:12:59.266Z,6.70
2023-11-03T05:15:25.984Z,8.40
2023-11-03T05:17:52.795Z,7.50
2023-11-03T05:20:20.922Z,6.10
2023-11-03T05:22:48.001Z,8.30
2023-11-03T05:25:15.142Z,9.30
2023-11-03T05:27:42.255Z,5.90
2023-11-03T05:30:09.770Z,5.90
2023-11-03T05:32:37.250Z,3.50
2023-11-03T05:35:04.257Z,3.10
2023-11-03T05:37:31.115Z,2.80
2023-11-03T05:39:57.894Z,2.50
2023-11-03T05:42:24.900Z,2.40
2023-11-03T05:44:51.546Z,2.80
2023-11-03T05:47:18.291Z,2.60
2023-11-03T05:49:45.090Z,2.30
2023-11-03T05:52:11.985Z,2.10
2023-11-03T05:54:38.840Z,2.20
2023-11-03T05:57:05.801Z,2.60
2023-11-03T05:59:32.541Z,2.60
2023-11-03T06:01:59.188Z,1.90
2023-11-03T06:04:25.857Z,2.50
2023-11-03T06:06:52.719Z,2.50
2023-11-03T06:09:19.424Z,3.50
2023-11-03T06:11:46.260Z,4.50
2023-11-03T06:14:13.243Z,4.70
2023-11-03T06:16:39.873Z,3.40
2023-11-03T06:19:07.016Z,2.40
2023-11-03T06:21:33.902Z,4.20
2023-11-03T06:24:00.631Z,4.60
2023-11-03T06:26:27.279Z,4.40
2023-11-03T06:28:54.240Z,4.00
2023-11-03T06:31:21.095Z,3.00
2023-11-03T06:33:48.130Z,3.40
2023-11-03T06:36:15.181Z,4.40
2023-11-03T06:38:42.164Z,3.70
2023-11-03T06:41:11.495Z,3.20
2023-11-03T06:43:38.625Z,2.70
2023-11-03T06:46:05.407Z,2.30
2023-11-03T06:48:32.347Z,2.30
2023-11-03T06:50:59.233Z,2.80
2023-11-03T06:53:26.222Z,2.70
2023-11-03T06:55:52.898Z,2.40
2023-11-03T06:58:19.688Z,2.10
2023-11-03T07:00:46.397Z,2.00
2023-11-03T07:03:13.330Z,1.40
2023-11-03T07:05:40.229Z,2.30
2023-11-03T07:08:07.430Z,2.20
2023-11-03T07:10:34.176Z,2.80
2023-11-03T07:13:01.167Z,2.80
2023-11-03T07:15:28.016Z,2.80
2023-11-03T07:17:54.730Z,2.20
2023-11-03T07:20:21.503Z,1.90
2023-11-03T07:22:48.157Z,2.50
2023-11-03T07:25:14.931Z,3.30
2023-11-03T07:27:41.813Z,3.80
2023-11-03T07:30:09.452Z,6.50
2023-11-03T07:32:36.409Z,11.10
2023-11-03T07:35:03.410Z,9.80
2023-11-03T07:37:30.138Z,9.90
2023-11-03T07:39:56.966Z,14.30
2023-11-03T07:42:23.933Z,9.60
2023-11-03T07:44:50.707Z,4.80
2023-11-03T07:47:17.468Z,3.60
2023-11-03T07:49:44.396Z,2.50
2023-11-03T07:52:11.259Z,2.10
2023-11-03T07:54:38.297Z,2.20
2023-11-03T07:57:05.499Z,2.20
2023-11-03T07:59:32.405Z,2.00
2023-11-03T08:01:59.254Z,2.20
2023-11-03T08:04:25.971Z,2.10
2023-11-03T08:06:52.956Z,2.10
2023-11-03T08:09:19.523Z,3.20
2023-11-03T08:11:46.088Z,3.90
2023-11-03T08:14:12.783Z,8.20
2023-11-03T08:16:45.528Z,9.70
2023-11-03T08:19:13.078Z,4.80
2023-11-03T08:21:40.267Z,4.70
2023-11-03T08:24:07.221Z,2.40
2023-11-03T08:26:33.941Z,2.40
2023-11-03T08:29:00.598Z,2.50
2023-11-03T08:31:28.023Z,2.50
2023-11-03T08:33:54.793Z,2.40
2023-11-03T08:36:21.782Z,2.50
2023-11-03T08:38:49.051Z,6.50
2023-11-03T08:41:15.804Z,3.40
2023-11-03T08:43:45.114Z,4.10
2023-11-03T08:46:11.882Z,2.30
2023-11-03T08:48:41.749Z,2.40
2023-11-03T08:51:10.230Z,3.60
2023-11-03T08:53:37.331Z,6.00
2023-11-03T08:56:04.337Z,5.10
2023-11-03T08:58:31.015Z,4.00
2023-11-03T09:01:01.042Z,2.90
2023-11-03T09:03:29.924Z,3.90
2023-11-03T09:05:56.989Z,2.60
2023-11-03T09:08:23.834Z,2.60
2023-11-03T09:10:50.696Z,2.40
2023-11-03T09:13:23.620Z,2.40
2023-11-03T09:15:52.249Z,2.10
2023-11-03T09:18:20.846Z,1.70
2023-11-03T09:20:47.818Z,2.30
2023-11-03T09:23:14.928Z,2.60
2023-11-03T09:25:41.997Z,2.40
2023-11-03T09:28:08.942Z,2.70
2023-11-03T09:30:35.852Z,2.20
2023-11-03T09:33:03.206Z,2.20
2023-11-03T09:35:30.140Z,2.20
2023-11-03T09:37:56.763Z,2.10
2023-11-03T09:40:23.934Z,2.50
2023-11-03T09:42:51.488Z,2.80
2023-11-03T09:45:22.393Z,1.80
2023-11-03T09:47:53.158Z,2.20
2023-11-03T09:50:22.684Z,2.00
2023-11-03T09:52:52.822Z,2.40
2023-11-03T09:55:21.578Z,2.60
2023-11-03T09:57:49.860Z,2.70
2023-11-03T10:00:17.527Z,2.20
2023-11-03T10:02:44.799Z,2.20
2023-11-03T10:05:18.882Z,2.20
2023-11-03T10:08:04.059Z,2.60
2023-11-03T10:10:32.952Z,2.00
2023-11-03T10:12:59.782Z,2.10
2023-11-03T10:15:27.411Z,2.30
2023-11-03T10:17:55.279Z,2.60
2023-11-03T10:20:22.433Z,2.90
2023-11-03T10:22:49.868Z,2.50
2023-11-03T10:25:17.613Z,2.30
2023-11-03T10:27:49.198Z,2.10
2023-11-03T10:30:17.701Z,2.10
2023-11-03T10:32:45.973Z,2.00
2023-11-03T10:35:14.994Z,2.80
2023-11-03T10:37:43.139Z,2.30
2023-11-03T10:40:11.229Z,2.30
2023-11-03T10:42:47.984Z,2.00
2023-11-03T10:45:16.010Z,2.10
2023-11-03T10:47:53.812Z,2.10
2023-11-03T10:50:22.550Z,2.30
2023-11-03T10:53:14.428Z,2.10
2023-11-03T10:56:22.482Z,2.10
2023-11-03T10:58:55.269Z,2.10
2023-11-03T11:02:00.536Z,2.40
2023-11-03T11:04:34.634Z,2.40
2023-11-03T11:07:09.057Z,2.10
2023-11-03T11:09:47.372Z,2.20
2023-11-03T11:12:15.194Z,2.70
2023-11-03T11:14:43.822Z,2.50
2023-11-03T11:17:16.708Z,2.30
2023-11-03T11:19:46.518Z,2.50
2023-11-03T11:22:20.775Z,2.70
2023-11-03T11:24:48.172Z,2.50
2023-11-03T11:27:16.737Z,2.40
2023-11-03T11:29:43.833Z,2.50
2023-11-03T11:32:12.477Z,2.40
2023-11-03T11:34:42.162Z,2.40
2023-11-03T11:37:29.448Z,2.60
2023-11-03T11:39:58.550Z,3.10
2023-11-03T11:42:30.750Z,2.60
2023-11-03T11:44:58.295Z,3.00
2023-11-03T11:47:26.770Z,2.30
2023-11-03T11:49:55.140Z,2.40
2023-11-03T11:52:28.741Z,2.90
2023-11-03T11:54:57.727Z,3.00
2023-11-03T11:57:27.667Z,2.80
2023-11-03T11:59:56.061Z,2.60
2023-11-03T12:02:24.215Z,2.80
2023-11-03T12:04:52.243Z,2.70
2023-11-03T12:07:23.116Z,2.80
2023-11-03T12:09:54.484Z,2.60
2023-11-03T12:12:25.945Z,2.70
2023-11-03T12:14:54.008Z,3.10
2023-11-03T12:17:21.569Z,3.10
2023-11-03T12:19:49.713Z,3.00
2023-11-03T12:22:26.576Z,2.50
2023-11-03T12:24:56.857Z,3.00
2023-11-03T12:27:25.294Z,2.90
2023-11-03T12:29:52.619Z,2.80
2023-11-03T12:32:19.665Z,2.50
2023-11-03T12:34:46.694Z,2.90
2023-11-03T12:37:14.685Z,3.00
2023-11-03T12:39:55.147Z,3.20
2023-11-03T12:42:23.736Z,2.80
2023-11-03T12:44:58.533Z,2.20
2023-11-03T12:47:46.000Z,2.00
2023-11-03T12:50:20.281Z,2.50
2023-11-03T12:53:02.774Z,2.70
2023-11-03T12:55:31.811Z,2.70
2023-11-03T12:58:00.192Z,2.70
2023-11-03T13:00:28.627Z,2.50
2023-11-03T13:02:55.621Z,2.40
2023-11-03T13:05:23.984Z,2.80
2023-11-03T13:07:53.013Z,2.80
2023-11-03T13:10:20.867Z,2.70
2023-11-03T13:12:48.318Z,2.70
2023-11-03T13:15:15.136Z,3.10
2023-11-03T13:17:42.527Z,2.80
2023-11-03T13:20:11.585Z,3.10
2023-11-03T13:22:38.651Z,2.50
2023-11-03T13:25:05.844Z,2.40
2023-11-03T13:27:32.450Z,2.30
2023-11-03T13:29:59.272Z,1.90
2023-11-03T13:32:26.043Z,2.20
2023-11-03T13:34:52.744Z,2.10
2023-11-03T13:37:19.753Z,2.20
2023-11-03T13:39:46.496Z,2.10
2023-11-03T13:42:13.436Z,2.20
2023-11-03T13:44:41.570Z,1.70
2023-11-03T13:47:08.497Z,1.80
2023-11-03T13:49:36.084Z,1.80
2023-11-03T13:52:03.315Z,1.90
2023-11-03T13:54:30.061Z,1.90
2023-11-03T13:56:56.841Z,2.00
2023-11-03T13:59:23.572Z,1.80
2023-11-03T14:01:50.616Z,2.40
2023-11-03T14:04:17.694Z,2.20
2023-11-03T14:06:44.424Z,1.70
2023-11-03T14:09:16.593Z,1.90
2023-11-03T14:11:44.251Z,2.50
2023-11-03T14:14:11.022Z,2.40
2023-11-03T14:16:37.910Z,2.40
2023-11-03T14:19:04.780Z,2.10
2023-11-03T14:21:31.856Z,2.60
2023-11-03T14:23:58.594Z,2.50
2023-11-03T14:26:25.584Z,2.70
2023-11-03T14:28:54.689Z,1.90
2023-11-03T14:31:21.920Z,2.30
2023-11-03T14:33:48.965Z,3.20
2023-11-03T14:36:15.804Z,3.20
2023-11-03T14:38:42.658Z,3.20
2023-11-03T14:41:09.559Z,3.80
2023-11-03T14:43:36.567Z,5.30
2023-11-03T14:46:03.767Z,4.00
2023-11-03T14:48:30.700Z,3.90
2023-11-03T14:50:58.277Z,3.00
2023-11-03T14:53:26.013Z,1.50
2023-11-03T14:55:52.973Z,1.30
2023-11-03T14:58:20.401Z,1.80
2023-11-03T15:00:47.271Z,2.20
2023-11-03T15:03:14.573Z,1.60
2023-11-03T15:05:41.619Z,1.70
2023-11-03T15:08:08.913Z,1.30
2023-11-03T15:10:39.427Z,1.60
2023-11-03T15:13:06.727Z,1.20
2023-11-03T15:15:33.942Z,1.70
2023-11-03T15:18:02.341Z,1.90
2023-11-03T15:20:29.352Z,2.20
2023-11-03T15:22:58.008Z,1.50
2023-11-03T15:25:25.239Z,1.90
2023-11-03T15:27:52.327Z,1.90
2023-11-03T15:30:20.397Z,2.00
2023-11-03T15:32:48.633Z,1.60
2023-11-03T15:35:17.231Z,2.00
2023-11-03T15:37:45.199Z,2.10
2023-11-03T15:40:14.101Z,2.40
2023-11-03T15:42:41.134Z,2.60
2023-11-03T15:45:09.081Z,2.40
2023-11-03T15:47:35.885Z,2.10
2023-11-03T15:50:03.054Z,1.50
2023-11-03T15:52:30.129Z,0.90
2023-11-03T15:54:57.100Z,1.30
2023-11-03T15:57:26.398Z,1.40
2023-11-03T15:59:53.766Z,1.00
2023-11-03T16:02:20.649Z,1.50
2023-11-03T16:04:48.338Z,1.20
2023-11-03T16:07:15.669Z,1.60
2023-11-03T16:09:42.941Z,1.70
2023-11-03T16:12:10.414Z,2.00
2023-11-03T16:14:37.741Z,1.30
2023-11-03T16:17:05.543Z,2.10
2023-11-03T16:19:33.427Z,1.10
2023-11-03T16:22:00.890Z,1.50
2023-11-03T16:24:28.037Z,1.00
2023-11-03T16:26:55.026Z,1.70
2023-11-03T16:29:25.030Z,0.90
2023-11-03T16:31:52.674Z,1.20
2023-11-03T16:34:19.954Z,1.50
2023-11-03T16:36:46.841Z,2.20
2023-11-03T16:39:14.256Z,2.40
2023-11-03T16:41:40.937Z,2.00
2023-11-03T16:44:10.100Z,1.60
2023-11-03T16:46:37.824Z,1.50
2023-11-03T16:49:06.079Z,1.50
2023-11-03T16:51:33.426Z,1.40
2023-11-03T16:54:00.880Z,1.50
2023-11-03T16:56:31.088Z,1.40
2023-11-03T16:58:58.495Z,1.00
2023-11-03T17:01:25.467Z,1.10
2023-11-03T17:03:52.654Z,1.20
2023-11-03T17:06:19.590Z,1.20
2023-11-03T17:08:47.149Z,1.20
2023-11-03T17:11:14.226Z,2.00
2023-11-03T17:13:44.651Z,1.30
2023-11-03T17:16:11.845Z,1.30
2023-11-03T17:18:39.729Z,1.80
2023-11-03T17:21:06.506Z,1.10
2023-11-03T17:23:34.527Z,0.90
2023-11-03T17:26:03.996Z,1.30
2023-11-03T17:28:30.685Z,1.10
2023-11-03T17:30:57.944Z,1.20
2023-11-03T17:33:24.964Z,1.40
2023-11-03T17:35:52.191Z,1.70
2023-11-03T17:38:18.872Z,1.50
2023-11-03T17:40:45.716Z,1.30
2023-11-03T17:43:13.093Z,1.10
2023-11-03T17:45:42.138Z,1.20
2023-11-03T17:48:09.634Z,0.70
2023-11-03T17:50:36.938Z,0.80
2023-11-03T17:53:03.561Z,0.50
2023-11-03T17:55:31.317Z,1.20
2023-11-03T17:57:58.202Z,0.90
2023-11-03T18:00:25.338Z,1.30
2023-11-03T18:02:53.694Z,1.10
2023-11-03T18:05:20.627Z,0.90
2023-11-03T18:07:47.716Z,1.20
2023-11-03T18:10:15.674Z,0.90
2023-11-03T18:12:42.779Z,0.50
2023-11-03T18:15:11.362Z,0.60
2023-11-03T18:17:39.166Z,0.50
2023-11-03T18:20:09.792Z,1.10
2023-11-03T18:22:36.830Z,0.60
2023-11-03T18:25:04.185Z,1.20
2023-11-03T18:27:30.915Z,0.80
2023-11-03T18:29:57.579Z,1.40
2023-11-03T18:32:24.319Z,0.80
2023-11-03T18:34:51.030Z,0.70
2023-11-03T18:37:17.857Z,0.60
2023-11-03T18:39:44.855Z,0.90
2023-11-03T18:42:12.017Z,1.30
2023-11-03T18:44:39.777Z,0.80
2023-11-03T18:47:06.759Z,1.10
2023-11-03T18:52:03.044Z,0.70
2023-11-03T18:58:14.876Z,0.70
2023-11-03T19:04:22.207Z,1.10
2023-11-03T19:06:47.803Z,0.80
2023-11-03T19:07:52.840Z,0.80
2023-11-03T19:10:21.839Z,0.80
2023-11-03T19:12:48.617Z,0.70
2023-11-03T19:15:15.587Z,1.00
2023-11-03T19:17:42.436Z,1.00
2023-11-03T19:20:10.254Z,1.00
2023-11-03T19:22:38.308Z,1.00
2023-11-03T19:25:07.726Z,0.80
2023-11-03T19:27:35.404Z,0.70
2023-11-03T19:30:02.639Z,0.70
2023-11-03T19:32:30.407Z,0.90
2023-11-03T19:34:58.169Z,1.10
2023-11-03T19:37:26.415Z,1.50
2023-11-03T19:39:54.001Z,1.20
2023-11-03T19:42:20.868Z,1.10
2023-11-03T19:44:50.869Z,0.60
2023-11-03T19:47:18.214Z,0.90
2023-11-03T19:49:45.443Z,1.20
2023-11-03T19:52:12.538Z,4.30
2023-11-03T19:54:40.267Z,1.40
2023-11-03T19:57:07.408Z,0.90
2023-11-03T19:59:34.189Z,1.00
2023-11-03T20:02:01.756Z,1.00
2023-11-03T20:04:28.533Z,1.20
2023-11-03T20:06:57.560Z,0.90
2023-11-03T20:09:24.546Z,0.90
2023-11-03T20:11:51.543Z,1.00
2023-11-03T20:14:18.503Z,3.20
2023-11-03T20:16:45.404Z,6.20
2023-11-03T20:19:14.679Z,3.10
2023-11-03T20:21:41.901Z,1.70
2023-11-03T20:24:09.585Z,1.70
2023-11-03T20:26:36.767Z,1.50
2023-11-03T20:29:03.546Z,0.90
2023-11-03T20:31:30.307Z,1.10
2023-11-03T20:33:57.094Z,1.00
2023-11-03T20:36:24.338Z,0.80
2023-11-03T20:38:51.159Z,0.90
2023-11-03T20:41:18.238Z,0.80
2023-11-03T20:43:44.948Z,0.70
2023-11-03T20:46:14.380Z,0.60
2023-11-03T20:48:41.486Z,1.10
2023-11-03T20:51:09.088Z,1.20
2023-11-03T20:53:36.977Z,0.60
2023-11-03T20:56:04.856Z,0.80
2023-11-03T20:58:31.612Z,0.70
2023-11-03T21:00:58.360Z,1.30
2023-11-03T21:03:25.398Z,0.90
2023-11-03T21:05:52.536Z,1.00
2023-11-03T21:08:19.302Z,1.00
2023-11-03T21:10:46.139Z,1.10
2023-11-03T21:13:12.786Z,0.90
2023-11-03T21:15:39.579Z,1.20
2023-11-03T21:18:06.930Z,0.70
2023-11-03T21:20:33.952Z,0.90
2023-11-03T21:23:00.827Z,0.80
2023-11-03T21:25:27.440Z,0.60
2023-11-03T21:27:55.684Z,1.20
2023-11-03T21:30:22.424Z,1.00
2023-11-03T21:32:50.348Z,1.30
2023-11-03T21:35:17.152Z,1.90
2023-11-03T21:37:43.937Z,1.00
2023-11-03T21:40:11.264Z,1.20
2023-11-03T21:42:37.883Z,1.10
2023-11-03T21:45:06.627Z,0.80
2023-11-03T21:47:34.883Z,0.80
2023-11-03T21:50:01.688Z,0.80
2023-11-03T21:52:28.537Z,0.60
2023-11-03T21:54:55.615Z,1.00
2023-11-03T21:57:22.373Z,0.80
2023-11-03T21:59:49.504Z,0.40
2023-11-03T22:02:16.156Z,0.50
2023-11-03T22:04:43.016Z,0.70
2023-11-03T22:07:11.295Z,0.70
2023-11-03T22:09:38.063Z,0.50
2023-11-03T22:12:04.956Z,0.60
2023-11-03T22:14:32.043Z,1.10
2023-11-03T22:16:58.713Z,0.80
2023-11-03T22:19:25.938Z,0.90
2023-11-03T22:21:52.842Z,1.70
2023-11-03T22:24:19.508Z,1.50
2023-11-03T22:26:47.833Z,0.70
2023-11-03T22:29:16.415Z,0.90
2023-11-03T22:31:45.119Z,1.20
2023-11-03T22:34:12.059Z,1.60
2023-11-03T22:36:38.874Z,2.80
2023-11-03T22:39:06.271Z,3.90
2023-11-03T22:41:33.222Z,12.00
2023-11-03T22:43:59.861Z,9.40
2023-11-03T22:46:27.147Z,3.10
2023-11-03T22:48:54.144Z,1.00
2023-11-03T22:51:20.972Z,1.00
2023-11-03T22:53:48.067Z,1.10
2023-11-03T22:56:22.234Z,1.00
2023-11-03T22:58:49.652Z,0.90
2023-11-03T23:01:16.850Z,1.10
2023-11-03T23:03:43.511Z,0.80
2023-11-03T23:06:12.898Z,1.20
2023-11-03T23:08:40.270Z,0.80
2023-11-03T23:11:07.509Z,0.40
2023-11-03T23:13:34.363Z,0.40
2023-11-03T23:16:01.056Z,0.70
2023-11-03T23:18:27.965Z,0.50
2023-11-03T23:20:54.801Z,0.70
2023-11-03T23:23:21.582Z,0.70
2023-11-03T23:25:50.133Z,0.70
2023-11-03T23:28:16.874Z,0.40
2023-11-03T23:30:44.098Z,0.50
2023-11-03T23:33:11.178Z,0.50
2023-11-03T23:35:37.936Z,0.20
2023-11-03T23:38:05.103Z,0.30
2023-11-03T23:40:31.764Z,0.40
2023-11-03T23:42:58.594Z,0.30
2023-11-03T23:45:25.689Z,0.40
2023-11-03T23:47:52.582Z,0.20
2023-11-03T23:50:19.352Z,0.40
2023-11-03T23:52:46.092Z,0.50
2023-11-03T23:55:12.959Z,0.30
2023-11-03T23:57:39.978Z,0.20
